createdAt,value
2023-04-18T00:01:47.185Z,57.52
2023-04-18T00:06:51.746Z,57.16
2023-04-18T00:11:54.506Z,57.18
2023-04-18T00:16:57.569Z,57.03
2023-04-18T00:22:02.842Z,57.15
2023-04-18T00:27:05.827Z,57.24
2023-04-18T00:32:08.655Z,57.53
2023-04-18T00:37:13.937Z,56.88
2023-04-18T00:42:18.086Z,57.24
2023-04-18T00:47:21.860Z,57.35
2023-04-18T00:52:27.587Z,57.46
2023-04-18T00:57:31.013Z,57.52
2023-04-18T01:02:35.750Z,57.64
2023-04-18T01:07:41.849Z,57.79
2023-04-18T01:12:44.740Z,57.79
2023-04-18T01:17:47.606Z,57.75
2023-04-18T01:22:52.302Z,58.18
2023-04-18T01:27:58.754Z,58.31
2023-04-18T01:33:04.503Z,58.14
2023-04-18T01:38:07.255Z,58.36
2023-04-18T01:43:11.159Z,58.45
2023-04-18T01:48:14.188Z,58.52
2023-04-18T01:53:18.956Z,58.57
2023-04-18T01:58:23.782Z,59.26
2023-04-18T02:03:26.828Z,59.42
2023-04-18T02:08:30.781Z,59.77
2023-04-18T02:13:35.086Z,59.91
2023-04-18T02:18:44.082Z,59.93
2023-04-18T02:23:46.872Z,59.96
2023-04-18T02:28:51.053Z,60.52
2023-04-18T02:33:53.804Z,60.70
2023-04-18T02:38:58.082Z,60.80
2023-04-18T02:44:02.202Z,61.17
2023-04-18T02:49:04.977Z,61.06
2023-04-18T02:54:07.811Z,61.10
2023-04-18T02:59:27.046Z,61.73
2023-04-18T03:05:02.000Z,61.70
2023-04-18T03:10:05.899Z,61.73
2023-04-18T03:15:13.070Z,62.03
2023-04-18T03:20:15.997Z,62.19
2023-04-18T03:25:19.105Z,62.97
2023-04-18T03:30:28.608Z,62.96
2023-04-18T03:35:33.611Z,63.21
2023-04-18T03:40:36.597Z,63.11
2023-04-18T03:45:48.194Z,63.58
2023-04-18T03:50:53.322Z,64.60
2023-04-18T03:55:57.141Z,64.30
2023-04-18T04:01:12.834Z,64.87
2023-04-18T04:06:15.883Z,64.92
2023-04-18T04:11:20.381Z,65.00
2023-04-18T04:16:25.152Z,64.89
2023-04-18T04:21:31.322Z,64.68
2023-04-18T04:26:35.654Z,64.78
2023-04-18T04:31:46.574Z,64.60
2023-04-18T04:36:56.017Z,64.70
2023-04-18T04:42:03.889Z,65.12
2023-04-18T04:47:17.024Z,65.98
2023-04-18T04:52:20.839Z,66.17
2023-04-18T04:57:23.680Z,67.32
2023-04-18T05:02:28.056Z,67.32
2023-04-18T05:07:31.985Z,67.65
2023-04-18T05:12:36.067Z,67.82
2023-04-18T05:17:40.346Z,67.74
2023-04-18T05:22:43.250Z,67.80
2023-04-18T05:27:46.861Z,67.95
2023-04-18T05:32:51.144Z,68.09
2023-04-18T05:37:54.005Z,68.21
2023-04-18T05:42:56.817Z,68.28
2023-04-18T05:48:01.217Z,68.62
2023-04-18T05:53:04.003Z,68.50
2023-04-18T05:58:06.905Z,68.80
2023-04-18T06:03:11.681Z,68.73
2023-04-18T06:08:14.893Z,68.75
2023-04-18T06:13:17.889Z,68.62
2023-04-18T06:18:22.082Z,68.03
2023-04-18T06:23:25.020Z,68.43
2023-04-18T06:28:27.890Z,68.59
2023-04-18T06:33:32.153Z,68.66
2023-04-18T06:38:35.213Z,68.54
2023-04-18T06:43:38.181Z,68.75
2023-04-18T06:48:42.382Z,68.60
2023-04-18T06:53:45.998Z,68.78
2023-04-18T06:58:48.915Z,69.10
2023-04-18T07:03:53.191Z,68.81
2023-04-18T07:09:00.039Z,68.12
2023-04-18T07:14:02.959Z,67.95
2023-04-18T07:19:07.283Z,66.90
2023-04-18T07:24:10.350Z,65.36
2023-04-18T07:29:13.260Z,64.56
2023-04-18T07:34:17.895Z,64.71
2023-04-18T07:39:20.717Z,64.63
2023-04-18T07:44:25.276Z,64.57
2023-04-18T07:49:30.013Z,65.38
2023-04-18T07:54:32.988Z,65.55
2023-04-18T07:59:36.040Z,65.19
2023-04-18T08:04:40.511Z,65.52
2023-04-18T08:09:43.480Z,65.43
2023-04-18T08:14:46.382Z,65.23
2023-04-18T08:19:50.688Z,64.92
2023-04-18T08:30:00.606Z,62.42
2023-04-18T08:35:05.206Z,62.60
2023-04-18T08:40:08.927Z,62.58
2023-04-18T08:45:13.886Z,63.00
2023-04-18T08:50:18.480Z,62.92
2023-04-18T08:55:22.360Z,62.43
2023-04-18T09:00:25.316Z,61.87
2023-04-18T09:05:29.767Z,62.04
2023-04-18T09:10:34.094Z,61.57
2023-04-18T09:15:36.984Z,61.47
2023-04-18T09:20:42.566Z,61.45
2023-04-18T09:25:48.106Z,60.92
2023-04-18T09:30:52.723Z,61.25
2023-04-18T09:36:00.268Z,60.06
2023-04-18T09:41:09.168Z,58.36
2023-04-18T09:46:12.606Z,56.96
2023-04-18T09:51:17.468Z,55.90
2023-04-18T09:56:25.571Z,54.82
2023-04-18T10:01:29.491Z,54.76
2023-04-18T10:06:38.495Z,55.45
2023-04-18T10:11:41.675Z,55.14
2023-04-18T10:16:47.109Z,54.40
2023-04-18T10:21:58.124Z,54.89
2023-04-18T10:27:01.056Z,54.10
2023-04-18T10:32:07.261Z,52.71
2023-04-18T10:37:12.999Z,49.92
2023-04-18T10:42:15.933Z,48.29
2023-04-18T10:47:27.803Z,47.14
2023-04-18T10:52:32.596Z,47.90
2023-04-18T10:57:43.069Z,48.34
2023-04-18T11:02:55.871Z,47.26
2023-04-18T11:08:00.317Z,45.27
2023-04-18T11:13:06.844Z,45.60
2023-04-18T11:18:10.674Z,42.11
2023-04-18T11:23:20.597Z,43.96
2023-04-18T11:28:24.877Z,46.76
2023-04-18T11:33:30.060Z,48.03
2023-04-18T11:38:34.634Z,45.90
2023-04-18T11:43:37.590Z,44.78
2023-04-18T11:48:42.118Z,42.69
2023-04-18T11:53:46.657Z,42.76
2023-04-18T11:58:49.706Z,43.06
2023-04-18T12:04:02.975Z,44.33
2023-04-18T12:09:07.832Z,44.26
2023-04-18T12:14:20.464Z,43.79
2023-04-18T12:19:27.600Z,42.88
2023-04-18T12:24:32.424Z,44.19
2023-04-18T12:29:35.615Z,42.74
2023-04-18T12:34:38.533Z,43.34
2023-04-18T12:39:42.807Z,45.37
2023-04-18T12:44:47.943Z,43.21
2023-04-18T12:49:50.893Z,44.29
2023-04-18T12:54:56.362Z,44.66
2023-04-18T12:59:59.318Z,41.21
2023-04-18T13:05:02.382Z,39.70
2023-04-18T13:10:08.175Z,42.30
2023-04-18T13:15:11.923Z,43.13
2023-04-18T13:20:15.110Z,43.36
2023-04-18T13:25:19.464Z,41.14
2023-04-18T13:30:22.314Z,41.39
2023-04-18T13:35:25.222Z,40.47
2023-04-18T13:40:29.495Z,39.92
2023-04-18T13:45:32.346Z,41.23
2023-04-18T13:50:35.159Z,43.18
2023-04-18T13:55:39.392Z,41.65
2023-04-18T14:00:42.317Z,39.92
2023-04-18T14:05:45.220Z,42.25
2023-04-18T14:10:49.480Z,43.02
2023-04-18T14:15:53.773Z,40.71
2023-04-18T14:20:56.707Z,40.12
2023-04-18T14:26:01.094Z,39.51
2023-04-18T14:31:06.451Z,38.69
2023-04-18T14:36:10.440Z,38.05
2023-04-18T14:41:14.721Z,37.63
2023-04-18T14:46:20.259Z,38.33
2023-04-18T14:51:24.012Z,38.75
2023-04-18T15:01:31.272Z,38.66
2023-04-18T15:06:34.390Z,38.57
2023-04-18T15:11:38.704Z,38.40
2023-04-18T15:16:41.557Z,38.19
2023-04-18T15:21:44.428Z,37.04
2023-04-18T15:26:48.534Z,37.78
2023-04-18T15:31:51.663Z,38.90
2023-04-18T15:36:54.548Z,38.70
2023-04-18T15:41:58.713Z,38.89
2023-04-18T15:47:01.858Z,39.36
2023-04-18T15:52:06.304Z,40.11
2023-04-18T15:57:10.938Z,39.74
2023-04-18T16:02:13.876Z,39.51
2023-04-18T16:07:17.067Z,39.11
2023-04-18T16:12:21.473Z,39.52
2023-04-18T16:17:24.217Z,39.86
2023-04-18T16:22:27.012Z,40.50
2023-04-18T16:27:31.357Z,40.29
2023-04-18T16:32:34.220Z,41.10
2023-04-18T16:37:37.177Z,40.96
2023-04-18T16:42:41.558Z,41.78
2023-04-18T16:47:44.394Z,42.64
2023-04-18T16:52:47.207Z,42.42
2023-04-18T16:57:51.816Z,42.87
2023-04-18T17:02:55.792Z,43.14
2023-04-18T17:07:58.748Z,43.73
2023-04-18T17:13:03.532Z,44.32
2023-04-18T17:18:06.530Z,44.92
2023-04-18T17:23:09.328Z,45.81
2023-04-18T17:28:13.943Z,46.73
2023-04-18T17:33:16.764Z,47.13
2023-04-18T17:38:19.654Z,47.91
2023-04-18T17:43:23.854Z,48.50
2023-04-18T17:48:27.352Z,48.94
2023-04-18T17:53:32.209Z,49.20
2023-04-18T17:58:36.683Z,49.55
2023-04-18T18:03:39.715Z,50.32
2023-04-18T18:08:44.224Z,50.83
2023-04-18T18:13:51.662Z,51.35
2023-04-18T18:18:54.739Z,51.87
2023-04-18T18:23:57.609Z,52.09
2023-04-18T18:29:02.282Z,52.67
2023-04-18T18:34:05.420Z,53.59
2023-04-18T18:39:08.274Z,53.75
2023-04-18T18:44:13.049Z,54.19
2023-04-18T18:49:16.133Z,54.29
2023-04-18T18:54:19.201Z,54.47
2023-04-18T18:59:23.435Z,53.97
2023-04-18T19:04:26.542Z,54.15
2023-04-18T19:09:29.512Z,54.54
2023-04-18T19:14:33.930Z,54.08
2023-04-18T19:19:36.812Z,53.86
2023-04-18T19:24:39.644Z,54.43
2023-04-18T19:29:43.836Z,54.70
2023-04-18T19:34:46.788Z,55.11
2023-04-18T19:39:49.656Z,55.73
2023-04-18T19:44:53.870Z,56.06
2023-04-18T19:49:56.649Z,56.40
2023-04-18T19:54:59.587Z,57.02
2023-04-18T20:00:03.848Z,57.07
2023-04-18T20:05:15.131Z,57.13
2023-04-18T20:10:21.766Z,57.94
2023-04-18T20:15:25.932Z,58.09
2023-04-18T20:20:28.925Z,58.37
2023-04-18T20:25:32.815Z,58.47
2023-04-18T20:30:37.282Z,58.56
2023-04-18T20:35:40.500Z,58.51
2023-04-18T20:40:44.885Z,58.47
2023-04-18T20:45:51.468Z,58.77
2023-04-18T20:50:54.372Z,58.61
2023-04-18T20:55:57.232Z,58.83
2023-04-18T21:01:01.322Z,58.90
2023-04-18T21:06:04.287Z,58.83
2023-04-18T21:11:07.136Z,58.77
2023-04-18T21:16:11.365Z,58.78
2023-04-18T21:21:14.129Z,58.86
2023-04-18T21:26:17.037Z,58.94
2023-04-18T21:31:21.233Z,59.05
2023-04-18T21:36:26.369Z,58.98
2023-04-18T21:41:29.590Z,58.97
2023-04-18T21:46:33.759Z,59.22
2023-04-18T21:51:36.562Z,59.38
2023-04-18T21:56:39.381Z,59.36
2023-04-18T22:01:43.911Z,59.22
2023-04-18T22:06:46.746Z,59.04
2023-04-18T22:11:51.471Z,58.80
2023-04-18T22:16:55.720Z,58.68
2023-04-18T22:21:58.648Z,58.38
2023-04-18T22:27:02.749Z,57.93
2023-04-18T22:32:07.030Z,57.96
2023-04-18T22:37:09.780Z,57.58
2023-04-18T22:42:12.558Z,57.13
2023-04-18T22:47:16.741Z,56.89
2023-04-18T22:52:20.244Z,56.61
2023-04-18T22:57:23.002Z,56.60
2023-04-18T23:02:27.233Z,56.10
2023-04-18T23:07:30.132Z,55.50
2023-04-18T23:12:32.863Z,55.06
2023-04-18T23:17:37.001Z,55.00
2023-04-18T23:22:39.810Z,54.89
2023-04-18T23:27:42.568Z,54.54
2023-04-18T23:32:46.695Z,54.81
2023-04-18T23:37:50.091Z,54.48
2023-04-18T23:42:52.928Z,54.48
2023-04-18T23:47:57.051Z,54.59
2023-04-18T23:52:59.835Z,54.64
2023-04-18T23:58:02.574Z,54.88
